createdAt,value
2018-10-21T05:35:58.834Z,1024.93
2018-10-21T05:36:58.862Z,1024.93
2018-10-21T05:37:58.960Z,1024.92
2018-10-21T05:38:58.903Z,1024.95
2018-10-21T05:39:58.938Z,1024.91
2018-10-21T05:40:58.950Z,1025.00
2018-10-21T05:41:58.976Z,1024.94
2018-10-21T05:42:58.998Z,1024.91
2018-10-21T05:43:59.017Z,1024.93
2018-10-21T05:44:59.046Z,1024.93
2018-10-21T05:45:59.107Z,1024.98
2018-10-21T05:46:59.145Z,1024.95
2018-10-21T05:47:59.111Z,1024.95
2018-10-21T05:48:59.134Z,1024.95
2018-10-21T05:49:59.158Z,1024.97
2018-10-21T05:50:59.180Z,1025.00
2018-10-21T05:51:59.255Z,1024.94
2018-10-21T05:52:59.226Z,1025.00
2018-10-21T05:53:59.250Z,1025.03
2018-10-21T05:54:59.278Z,1025.00
2018-10-21T05:55:59.296Z,1025.03
2018-10-21T05:56:59.321Z,1025.10
2018-10-21T05:57:59.414Z,1025.14
2018-10-21T05:58:59.368Z,1025.09
2018-10-21T05:59:59.392Z,1025.11
2018-10-21T06:00:59.416Z,1025.12
2018-10-21T06:01:59.442Z,1025.13
2018-10-21T06:02:59.568Z,1025.17
2018-10-21T06:03:59.521Z,1025.13
2018-10-21T06:04:59.515Z,1025.10
2018-10-21T06:05:59.542Z,1025.10
2018-10-21T06:06:59.567Z,1025.07
2018-10-21T06:07:59.591Z,1025.08
2018-10-21T06:08:59.616Z,1025.13
2018-10-21T06:09:59.644Z,1025.11
2018-10-21T06:10:59.666Z,1025.13
2018-10-21T06:11:59.691Z,1025.13
2018-10-21T06:12:59.720Z,1025.15
2018-10-21T06:13:59.750Z,1025.19
2018-10-21T06:14:59.773Z,1025.19
2018-10-21T06:15:59.978Z,1025.20
2018-10-21T06:16:59.819Z,1025.18
2018-10-21T06:17:59.848Z,1025.18
2018-10-21T06:18:59.869Z,1025.13
2018-10-21T06:19:59.895Z,1025.19
2018-10-21T06:20:59.923Z,1025.23
2018-10-21T06:21:59.960Z,1025.22
2018-10-21T06:22:59.973Z,1025.24
2018-10-21T06:23:59.998Z,1025.29
2018-10-21T06:25:00.027Z,1025.32
2018-10-21T06:26:00.050Z,1025.30
2018-10-21T06:27:00.072Z,1025.35
2018-10-21T06:28:00.098Z,1025.31
2018-10-21T06:29:00.125Z,1025.29
2018-10-21T06:30:00.148Z,1025.33
2018-10-21T06:31:00.173Z,1025.31
2018-10-21T06:32:00.204Z,1025.30
2018-10-21T06:33:00.228Z,1025.33
2018-10-21T06:34:00.250Z,1025.29
2018-10-21T06:35:00.279Z,1025.33
2018-10-21T06:36:00.304Z,1025.35
2018-10-21T06:37:00.330Z,1025.36
2018-10-21T06:38:00.363Z,1025.32
2018-10-21T06:39:00.405Z,1025.33
2018-10-21T06:40:00.415Z,1025.33
2018-10-21T06:41:00.437Z,1025.26
2018-10-21T06:42:00.464Z,1025.29
2018-10-21T06:43:00.492Z,1025.31
2018-10-21T06:44:00.520Z,1025.31
2018-10-21T06:45:00.551Z,1025.34
2018-10-21T06:46:00.575Z,1025.33
2018-10-21T06:47:00.604Z,1025.37
2018-10-21T06:48:00.629Z,1025.37
2018-10-21T06:49:00.657Z,1025.38
2018-10-21T06:50:00.691Z,1025.38
2018-10-21T06:51:00.748Z,1025.40
2018-10-21T06:52:00.740Z,1025.42
2018-10-21T06:53:00.772Z,1025.43
2018-10-21T06:54:00.799Z,1025.42
2018-10-21T06:55:00.827Z,1025.39
2018-10-21T06:56:00.863Z,1025.42
2018-10-21T06:57:01.067Z,1025.45
2018-10-21T06:58:00.914Z,1025.46
2018-10-21T06:59:00.942Z,1025.42
2018-10-21T07:00:00.972Z,1025.42
2018-10-21T07:01:01.003Z,1025.43
2018-10-21T07:02:01.034Z,1025.46
2018-10-21T07:03:01.059Z,1025.47
2018-10-21T07:04:01.107Z,1025.43
2018-10-21T07:05:01.224Z,1025.48
2018-10-21T07:06:01.153Z,1025.41
2018-10-21T07:07:01.182Z,1025.43
2018-10-21T07:08:01.217Z,1025.42
2018-10-21T07:09:01.246Z,1025.42
2018-10-21T07:10:01.325Z,1025.45
2018-10-21T07:11:01.307Z,1025.46
2018-10-21T07:12:01.338Z,1025.50
2018-10-21T07:13:01.372Z,1025.46
2018-10-21T07:14:01.406Z,1025.49
2018-10-21T07:15:01.434Z,1025.52
2018-10-21T07:16:01.511Z,1025.53
2018-10-21T07:17:01.505Z,1025.57
2018-10-21T07:18:01.532Z,1025.59
2018-10-21T07:19:01.566Z,1025.58
2018-10-21T07:20:01.603Z,1025.58
2018-10-21T07:21:01.630Z,1025.58
2018-10-21T07:22:01.701Z,1025.64
2018-10-21T07:23:01.697Z,1025.68
2018-10-21T07:24:01.732Z,1025.62
2018-10-21T07:25:01.764Z,1025.63
2018-10-21T07:26:01.797Z,1025.65
2018-10-21T07:27:01.831Z,1025.62
2018-10-21T07:28:01.916Z,1025.64
2018-10-21T07:29:01.898Z,1025.69
2018-10-21T07:30:01.935Z,1025.70
2018-10-21T07:31:01.968Z,1025.68
2018-10-21T07:32:02.000Z,1025.69
2018-10-21T07:33:02.033Z,1025.71
2018-10-21T07:34:02.117Z,1025.72
2018-10-21T07:35:02.111Z,1025.72
2018-10-21T07:36:02.140Z,1025.71
2018-10-21T07:37:02.173Z,1025.70
2018-10-21T07:38:02.222Z,1025.68
2018-10-21T07:39:02.248Z,1025.66
2018-10-21T07:40:02.326Z,1025.68
2018-10-21T07:41:02.313Z,1025.65
2018-10-21T07:42:02.349Z,1025.71
2018-10-21T07:43:02.386Z,1025.72
2018-10-21T07:44:02.422Z,1025.74
2018-10-21T07:45:02.457Z,1025.71
2018-10-21T07:46:02.532Z,1025.75
2018-10-21T07:47:02.529Z,1025.74
2018-10-21T07:48:02.562Z,1025.75
2018-10-21T07:49:02.668Z,1025.73
2018-10-21T07:50:02.637Z,1025.73
2018-10-21T07:51:02.671Z,1025.73
2018-10-21T07:52:02.760Z,1025.72
2018-10-21T07:53:02.745Z,1025.77
2018-10-21T07:54:02.782Z,1025.71
2018-10-21T07:55:02.862Z,1025.71
2018-10-21T07:56:02.858Z,1025.73
2018-10-21T07:57:02.893Z,1025.77
2018-10-21T07:58:02.947Z,1025.82
2018-10-21T07:59:02.969Z,1025.78
2018-10-21T08:00:03.004Z,1025.81
2018-10-21T08:01:03.139Z,1025.77
2018-10-21T08:02:03.080Z,1025.77
2018-10-21T08:03:03.117Z,1025.79
2018-10-21T08:04:03.181Z,1025.80
2018-10-21T08:05:03.192Z,1025.78
2018-10-21T08:06:03.229Z,1025.76
2018-10-21T08:07:03.270Z,1025.78
2018-10-21T08:08:03.305Z,1025.73
2018-10-21T08:09:03.345Z,1025.69
2018-10-21T08:10:03.393Z,1025.68
2018-10-21T08:11:03.421Z,1025.67
2018-10-21T08:12:03.456Z,1025.70
2018-10-21T08:13:03.498Z,1025.72
2018-10-21T08:14:03.534Z,1025.69
2018-10-21T08:15:03.610Z,1025.70
2018-10-21T08:16:03.623Z,1025.70
2018-10-21T08:17:03.646Z,1025.69
2018-10-21T08:18:03.685Z,1025.66
2018-10-21T08:19:03.724Z,1025.67
2018-10-21T08:20:03.761Z,1025.72
2018-10-21T08:21:03.807Z,1025.73
2018-10-21T08:22:03.900Z,1025.77
2018-10-21T08:23:03.877Z,1025.81
2018-10-21T08:24:03.918Z,1025.76
2018-10-21T08:25:03.955Z,1025.77
2018-10-21T08:26:03.994Z,1025.79
2018-10-21T08:27:04.048Z,1025.83
2018-10-21T08:28:04.131Z,1025.78
2018-10-21T08:29:04.112Z,1025.79
2018-10-21T08:30:04.152Z,1025.77
2018-10-21T08:31:04.191Z,1025.79
2018-10-21T08:32:04.227Z,1025.78
2018-10-21T08:33:04.266Z,1025.80
2018-10-21T08:34:04.343Z,1025.76
2018-10-21T08:35:04.348Z,1025.80
2018-10-21T08:36:04.410Z,1025.86
2018-10-21T08:37:04.423Z,1025.88
2018-10-21T08:38:04.465Z,1025.89
2018-10-21T08:39:04.502Z,1025.89
2018-10-21T08:40:04.611Z,1025.90
2018-10-21T08:41:04.582Z,1025.89
2018-10-21T08:42:04.620Z,1025.88
2018-10-21T08:43:04.664Z,1025.86
2018-10-21T08:44:04.698Z,1025.85
2018-10-21T08:45:04.743Z,1025.88
2018-10-21T08:46:04.793Z,1025.87
2018-10-21T08:47:04.820Z,1025.92
2018-10-21T08:48:04.859Z,1025.89
2018-10-21T08:49:04.948Z,1025.87
2018-10-21T08:50:05.018Z,1025.83
2018-10-21T08:51:04.976Z,1025.84
2018-10-21T08:52:05.047Z,1025.87
2018-10-21T08:53:05.061Z,1025.78
2018-10-21T08:54:05.095Z,1025.76
2018-10-21T08:55:05.173Z,1025.72
2018-10-21T08:56:05.278Z,1025.71
2018-10-21T08:57:05.214Z,1025.73
2018-10-21T08:58:05.285Z,1025.69
2018-10-21T08:59:05.299Z,1025.73
2018-10-21T09:00:05.337Z,1025.75
2018-10-21T09:01:05.417Z,1025.73
2018-10-21T09:02:05.466Z,1025.72
2018-10-21T09:03:05.456Z,1025.73
2018-10-21T09:04:05.568Z,1025.74
2018-10-21T09:05:05.537Z,1025.71
2018-10-21T09:06:05.576Z,1025.72
2018-10-21T09:07:05.648Z,1025.73
2018-10-21T09:08:05.659Z,1025.68
2018-10-21T09:09:05.697Z,1025.70
2018-10-21T09:10:05.829Z,1025.72
2018-10-21T09:11:05.803Z,1025.80
2018-10-21T09:12:05.820Z,1025.83
2018-10-21T09:13:05.919Z,1025.78
2018-10-21T09:14:05.898Z,1025.85
2018-10-21T09:15:06.023Z,1025.81
2018-10-21T09:16:05.990Z,1025.81
2018-10-21T09:17:06.023Z,1025.80
2018-10-21T09:18:06.065Z,1025.79
2018-10-21T09:19:06.131Z,1025.80
2018-10-21T09:20:06.143Z,1025.78
2018-10-21T09:21:06.183Z,1025.81
2018-10-21T09:22:06.265Z,1025.81
2018-10-21T09:23:06.272Z,1025.81
2018-10-21T09:24:06.308Z,1025.77
2018-10-21T09:25:06.391Z,1025.78
2018-10-21T09:26:06.388Z,1025.72
2018-10-21T09:27:06.430Z,1025.74
2018-10-21T09:28:06.539Z,1025.72
2018-10-21T09:29:06.510Z,1025.75
2018-10-21T09:30:06.555Z,1025.73
2018-10-21T09:31:06.611Z,1025.71
2018-10-21T09:32:06.634Z,1025.72
2018-10-21T09:33:06.697Z,1025.69
2018-10-21T09:34:06.793Z,1025.74
2018-10-21T09:35:06.761Z,1025.68
2018-10-21T09:36:06.804Z,1025.68
2018-10-21T09:37:06.877Z,1025.69
2018-10-21T09:38:06.881Z,1025.68
2018-10-21T09:39:06.923Z,1025.66
2018-10-21T09:40:07.019Z,1025.68
2018-10-21T09:41:07.007Z,1025.70
2018-10-21T09:42:07.097Z,1025.68
2018-10-21T09:43:07.112Z,1025.73
2018-10-21T09:44:07.138Z,1025.69
2018-10-21T09:45:07.172Z,1025.68
2018-10-21T09:46:07.322Z,1025.66
2018-10-21T09:47:07.256Z,1025.63
2018-10-21T09:48:07.302Z,1025.65
2018-10-21T09:49:07.373Z,1025.68
2018-10-21T09:50:07.532Z,1025.72
2018-10-21T09:51:07.421Z,1025.71
2018-10-21T09:52:07.554Z,1025.73
2018-10-21T09:53:07.503Z,1025.76
2018-10-21T09:54:07.545Z,1025.72
2018-10-21T09:55:07.642Z,1025.73
2018-10-21T09:56:07.630Z,1025.73
2018-10-21T09:57:07.668Z,1025.75
2018-10-21T09:58:07.788Z,1025.70
2018-10-21T09:59:07.751Z,1025.44
2018-10-21T10:00:07.796Z,1025.40
2018-10-21T10:01:07.905Z,1025.61
2018-10-21T10:02:07.882Z,1025.63
2018-10-21T10:03:07.916Z,1025.60
2018-10-21T10:04:08.020Z,1025.64
2018-10-21T10:05:08.021Z,1025.52
2018-10-21T10:06:08.038Z,1025.39
2018-10-21T10:07:08.125Z,1025.64
2018-10-21T10:08:08.124Z,1025.49
2018-10-21T10:09:08.161Z,1025.62
2018-10-21T10:10:08.253Z,1025.63
2018-10-21T10:11:08.237Z,1025.66
2018-10-21T10:12:08.276Z,1025.61
2018-10-21T10:13:08.338Z,1025.58
2018-10-21T10:14:08.357Z,1025.58
2018-10-21T10:15:08.401Z,1025.58
2018-10-21T10:16:08.463Z,1025.62
2018-10-21T10:17:08.476Z,1025.53
2018-10-21T10:18:08.518Z,1025.56
2018-10-21T10:19:08.626Z,1025.47
2018-10-21T10:20:08.596Z,1025.59
2018-10-21T10:21:08.633Z,1025.30
2018-10-21T10:22:08.767Z,1025.30
2018-10-21T10:23:08.761Z,1025.41
2018-10-21T10:24:08.757Z,1025.37
2018-10-21T10:25:08.885Z,1025.64
2018-10-21T10:26:08.833Z,1025.44
2018-10-21T10:27:08.875Z,1025.66
2018-10-21T10:28:08.934Z,1025.62
2018-10-21T10:29:08.950Z,1025.57
2018-10-21T10:30:08.989Z,1025.41
2018-10-21T10:31:09.109Z,1025.53
2018-10-21T10:32:09.068Z,1025.51
2018-10-21T10:33:09.106Z,1025.48
2018-10-21T10:34:09.188Z,1025.50
2018-10-21T10:35:09.184Z,1025.50
2018-10-21T10:36:09.244Z,1025.46
2018-10-21T10:37:09.378Z,1025.47
2018-10-21T10:38:09.302Z,1025.46
2018-10-21T10:39:09.339Z,1025.36
2018-10-21T10:40:09.537Z,1025.45
2018-10-21T10:41:09.422Z,1025.49
2018-10-21T10:42:09.481Z,1025.53
2018-10-21T10:43:09.509Z,1025.50
2018-10-21T10:44:09.543Z,1025.48
2018-10-21T10:45:09.578Z,1025.49
2018-10-21T10:46:09.658Z,1025.51
2018-10-21T10:47:09.654Z,1025.48
2018-10-21T10:48:09.700Z,1025.48
2018-10-21T10:49:09.791Z,1025.49
2018-10-21T10:50:09.775Z,1025.53
2018-10-21T10:51:09.814Z,1025.57
2018-10-21T10:52:09.951Z,1025.56
2018-10-21T10:53:09.925Z,1025.50
2018-10-21T10:54:09.929Z,1025.53
2018-10-21T10:55:10.031Z,1025.34
2018-10-21T10:56:10.008Z,1025.58
2018-10-21T10:57:10.047Z,1025.59
2018-10-21T10:58:10.110Z,1025.60
2018-10-21T10:59:10.125Z,1025.59
2018-10-21T11:00:10.271Z,1025.57
2018-10-21T11:01:10.219Z,1025.52
2018-10-21T11:02:10.245Z,1025.51
2018-10-21T11:03:10.279Z,1025.53
2018-10-21T11:04:10.352Z,1025.55
2018-10-21T11:05:10.362Z,1025.60
2018-10-21T11:06:10.406Z,1025.56
2018-10-21T11:07:10.446Z,1025.56
2018-10-21T11:08:10.479Z,1025.51
2018-10-21T11:09:10.517Z,1025.61
2018-10-21T11:10:10.631Z,1025.65
2018-10-21T11:11:10.595Z,1025.60
2018-10-21T11:12:10.635Z,1025.63
2018-10-21T11:13:10.778Z,1025.56
2018-10-21T11:14:10.720Z,1025.52
2018-10-21T11:15:10.757Z,1025.44
2018-10-21T11:16:10.886Z,1025.10
2018-10-21T11:17:10.834Z,1025.45
2018-10-21T11:18:10.876Z,1025.36
2018-10-21T11:19:11.016Z,1025.31
2018-10-21T11:20:10.953Z,1025.41
2018-10-21T11:21:10.996Z,1025.39
2018-10-21T11:22:11.120Z,1025.11
2018-10-21T11:23:11.074Z,1025.10
2018-10-21T11:24:11.112Z,1025.39
2018-10-21T11:25:11.167Z,1025.35
2018-10-21T11:26:11.189Z,1025.07
2018-10-21T11:27:11.230Z,1025.11
2018-10-21T11:28:11.327Z,1025.11
2018-10-21T11:29:11.310Z,1025.14
2018-10-21T11:30:11.347Z,1025.13
2018-10-21T11:31:11.530Z,1025.20
2018-10-21T11:32:11.423Z,1025.18
2018-10-21T11:33:11.458Z,1025.18
2018-10-21T11:34:11.576Z,1025.12
2018-10-21T11:35:11.539Z,1025.11
2018-10-21T11:36:11.569Z,1025.15
2018-10-21T11:37:11.704Z,1025.12
2018-10-21T11:38:11.645Z,1025.04
2018-10-21T11:39:11.680Z,1025.04
2018-10-21T11:40:11.784Z,1025.05
2018-10-21T11:41:11.749Z,1024.99
2018-10-21T11:42:11.788Z,1025.12
2018-10-21T11:43:11.930Z,1025.23
2018-10-21T11:44:11.854Z,1025.27
2018-10-21T11:45:11.891Z,1025.29
2018-10-21T11:46:12.061Z,1025.23
2018-10-21T11:47:11.963Z,1025.21
2018-10-21T11:48:11.997Z,1025.09
2018-10-21T11:49:12.059Z,1024.99
2018-10-21T11:50:12.070Z,1024.96
2018-10-21T11:51:12.103Z,1025.04
2018-10-21T11:52:12.158Z,1025.04
2018-10-21T11:53:12.175Z,1025.06
2018-10-21T11:54:12.211Z,1025.06
2018-10-21T11:55:12.294Z,1025.02
2018-10-21T11:56:12.280Z,1025.05
2018-10-21T11:57:12.316Z,1025.02
2018-10-21T11:58:12.427Z,1024.99
2018-10-21T11:59:12.386Z,1025.03
2018-10-21T12:00:12.420Z,1025.01
2018-10-21T12:01:12.526Z,1025.04
2018-10-21T12:02:12.488Z,1025.01
2018-10-21T12:03:12.524Z,1025.04
2018-10-21T12:04:12.599Z,1025.04
2018-10-21T12:05:12.594Z,1025.04
2018-10-21T12:06:12.627Z,1025.05
2018-10-21T12:07:12.780Z,1025.04
2018-10-21T12:08:12.692Z,1025.00
2018-10-21T12:09:12.726Z,1025.07
2018-10-21T12:10:12.830Z,1025.04
2018-10-21T12:11:12.792Z,1025.02
2018-10-21T12:12:12.829Z,1024.99
2018-10-21T12:13:13.052Z,1024.99
2018-10-21T12:14:12.894Z,1025.01
2018-10-21T12:15:12.926Z,1025.05
2018-10-21T12:16:13.068Z,1024.99
2018-10-21T12:17:12.996Z,1024.96
2018-10-21T12:18:13.029Z,1024.95
2018-10-21T12:19:13.129Z,1025.01
2018-10-21T12:20:13.094Z,1024.97
2018-10-21T12:21:13.127Z,1025.00
2018-10-21T12:22:13.265Z,1025.01
2018-10-21T12:23:13.352Z,1025.01
2018-10-21T12:24:13.229Z,1025.02
2018-10-21T12:25:13.395Z,1025.09
2018-10-21T12:26:13.297Z,1024.99
2018-10-21T12:27:13.326Z,1024.94
2018-10-21T12:28:13.414Z,1024.95
2018-10-21T12:29:13.478Z,1024.94
2018-10-21T12:30:13.432Z,1024.96
2018-10-21T12:31:13.549Z,1024.97
2018-10-21T12:32:13.496Z,1024.97
2018-10-21T12:33:13.533Z,1024.97
2018-10-21T12:34:13.643Z,1024.98
2018-10-21T12:35:13.701Z,1025.04
2018-10-21T12:36:13.626Z,1025.04
2018-10-21T12:37:13.723Z,1025.06
2018-10-21T12:38:13.698Z,1025.01
2018-10-21T12:39:13.728Z,1024.96
2018-10-21T12:40:13.854Z,1025.01
2018-10-21T12:41:13.930Z,1025.02
2018-10-21T12:42:13.828Z,1024.94
2018-10-21T12:43:14.073Z,1024.96
2018-10-21T12:44:13.896Z,1024.95
2018-10-21T12:45:13.961Z,1024.91
2018-10-21T12:46:14.049Z,1024.90
2018-10-21T12:47:14.061Z,1024.97
2018-10-21T12:48:14.029Z,1024.92
2018-10-21T12:49:14.144Z,1024.97
2018-10-21T12:50:14.097Z,1024.83
2018-10-21T12:51:14.131Z,1024.76
2018-10-21T12:52:14.220Z,1024.76
2018-10-21T12:53:14.357Z,1024.76
2018-10-21T12:54:14.366Z,1024.78
2018-10-21T12:55:14.443Z,1024.82
2018-10-21T12:56:14.297Z,1024.79
2018-10-21T12:57:14.332Z,1024.78
2018-10-21T12:58:14.534Z,1024.77
2018-10-21T12:59:14.397Z,1024.75
2018-10-21T13:00:14.434Z,1024.76
2018-10-21T13:01:14.555Z,1024.77
2018-10-21T13:02:14.563Z,1024.80
2018-10-21T13:03:14.529Z,1024.78
2018-10-21T13:04:14.624Z,1024.74
2018-10-21T13:05:14.595Z,1024.76
2018-10-21T13:06:14.632Z,1024.70
2018-10-21T13:07:14.800Z,1024.67
2018-10-21T13:08:14.697Z,1024.63
2018-10-21T13:09:14.730Z,1024.62
2018-10-21T13:10:14.864Z,1024.57
2018-10-21T13:11:14.793Z,1024.53
2018-10-21T13:12:14.829Z,1024.60
2018-10-21T13:13:14.903Z,1024.58
2018-10-21T13:14:14.892Z,1024.53
2018-10-21T13:15:14.927Z,1024.50
2018-10-21T13:16:15.013Z,1024.55
2018-10-21T13:17:14.990Z,1024.53
2018-10-21T13:18:15.023Z,1024.50
2018-10-21T13:19:15.184Z,1024.49
2018-10-21T13:20:15.090Z,1024.44
2018-10-21T13:21:15.120Z,1024.43
2018-10-21T13:22:15.207Z,1024.42
2018-10-21T13:23:15.183Z,1024.45
2018-10-21T13:24:15.221Z,1024.40
2018-10-21T13:25:15.337Z,1024.38
2018-10-21T13:26:15.281Z,1024.35
2018-10-21T13:27:15.314Z,1024.34
2018-10-21T13:28:15.433Z,1024.27
2018-10-21T13:29:15.380Z,1024.35
2018-10-21T13:30:15.410Z,1024.38
2018-10-21T13:31:15.543Z,1024.36
2018-10-21T13:32:15.474Z,1024.41
2018-10-21T13:33:15.507Z,1024.43
2018-10-21T13:34:15.668Z,1024.46
2018-10-21T13:35:15.583Z,1024.46
2018-10-21T13:36:15.603Z,1024.44
2018-10-21T13:37:15.690Z,1024.42
2018-10-21T13:38:15.670Z,1024.45
2018-10-21T13:39:15.700Z,1024.46
2018-10-21T13:40:15.822Z,1024.44
2018-10-21T13:41:15.765Z,1024.39
2018-10-21T13:42:15.800Z,1024.39
2018-10-21T13:43:15.954Z,1024.37
2018-10-21T13:44:15.860Z,1024.31
2018-10-21T13:45:15.895Z,1024.33
2018-10-21T13:46:15.980Z,1024.30
2018-10-21T13:47:15.956Z,1024.30
2018-10-21T13:48:15.989Z,1024.29
2018-10-21T13:49:16.078Z,1024.28
2018-10-21T13:50:16.058Z,1024.28
2018-10-21T13:51:16.088Z,1024.28
2018-10-21T13:52:16.171Z,1024.27
2018-10-21T13:53:16.175Z,1024.24
2018-10-21T13:54:16.180Z,1024.23
2018-10-21T13:55:16.266Z,1024.20
2018-10-21T13:56:16.245Z,1024.22
2018-10-21T13:57:16.281Z,1024.23
2018-10-21T13:58:16.394Z,1024.21
2018-10-21T13:59:16.379Z,1024.26
2018-10-21T14:00:16.378Z,1024.23
2018-10-21T14:01:16.433Z,1024.26
2018-10-21T14:02:16.439Z,1024.25
2018-10-21T14:03:16.472Z,1024.22
2018-10-21T14:04:16.593Z,1024.24
2018-10-21T14:05:16.534Z,1024.25
2018-10-21T14:06:16.569Z,1024.25
2018-10-21T14:07:16.703Z,1024.25
2018-10-21T14:08:16.631Z,1024.24
2018-10-21T14:09:16.660Z,1024.19
2018-10-21T14:10:16.766Z,1024.20
2018-10-21T14:11:16.725Z,1024.17
2018-10-21T14:12:16.755Z,1024.16
2018-10-21T14:13:16.834Z,1024.18
2018-10-21T14:14:16.820Z,1024.18
2018-10-21T14:15:16.928Z,1024.20
2018-10-21T14:16:16.943Z,1024.20
2018-10-21T14:17:16.916Z,1024.19
2018-10-21T14:18:16.945Z,1024.15
2018-10-21T14:19:16.979Z,1024.18
2018-10-21T14:20:17.012Z,1024.15
2018-10-21T14:21:17.068Z,1024.11
2018-10-21T14:22:17.092Z,1024.13
2018-10-21T14:23:17.105Z,1024.10
2018-10-21T14:24:17.218Z,1024.08
2018-10-21T14:25:17.168Z,1024.04
2018-10-21T14:26:17.199Z,1024.05
2018-10-21T14:27:17.231Z,1024.05
2018-10-21T14:28:17.263Z,1024.02
2018-10-21T14:29:17.296Z,1024.03
2018-10-21T14:30:17.503Z,1024.00
2018-10-21T14:31:17.357Z,1023.96
2018-10-21T14:32:17.389Z,1023.93
2018-10-21T14:33:17.549Z,1023.91
2018-10-21T14:34:17.451Z,1023.90
2018-10-21T14:35:17.483Z,1023.92
2018-10-21T14:36:17.548Z,1023.91
2018-10-21T14:37:17.553Z,1023.90
2018-10-21T14:38:17.577Z,1023.84
2018-10-21T14:39:17.699Z,1023.82
2018-10-21T14:40:17.641Z,1023.84
2018-10-21T14:41:17.672Z,1023.85
2018-10-21T14:42:17.776Z,1023.79
2018-10-21T14:43:17.735Z,1023.79
2018-10-21T14:44:17.765Z,1023.81
2018-10-21T14:45:17.949Z,1023.79
2018-10-21T14:46:17.828Z,1023.79
2018-10-21T14:47:17.857Z,1023.78
2018-10-21T14:48:17.988Z,1023.79
2018-10-21T14:49:17.924Z,1023.74
2018-10-21T14:50:17.952Z,1023.75
2018-10-21T14:51:18.040Z,1023.72
2018-10-21T14:52:18.015Z,1023.72
2018-10-21T14:53:18.048Z,1023.68
2018-10-21T14:54:18.152Z,1023.68
2018-10-21T14:55:18.181Z,1023.70
2018-10-21T14:56:18.189Z,1023.67
2018-10-21T14:57:18.169Z,1023.67
2018-10-21T14:58:18.200Z,1023.65
2018-10-21T14:59:18.235Z,1023.68
2018-10-21T15:00:18.338Z,1023.66
2018-10-21T15:01:18.296Z,1023.63
2018-10-21T15:02:18.415Z,1023.65
2018-10-21T15:03:18.412Z,1023.68
2018-10-21T15:04:18.511Z,1023.64
2018-10-21T15:05:18.414Z,1023.63
2018-10-21T15:06:18.669Z,1023.64
2018-10-21T15:07:18.482Z,1023.63
2018-10-21T15:08:18.560Z,1023.58
2018-10-21T15:09:18.621Z,1023.56
2018-10-21T15:10:18.667Z,1023.52
2018-10-21T15:11:18.597Z,1023.52
2018-10-21T15:12:18.631Z,1023.49
2018-10-21T15:13:18.660Z,1023.54
2018-10-21T15:14:18.691Z,1023.53
2018-10-21T15:15:18.722Z,1023.52
2018-10-21T15:16:18.861Z,1023.47
2018-10-21T15:17:18.783Z,1023.42
2018-10-21T15:18:18.972Z,1023.38
2018-10-21T15:19:18.840Z,1023.38
2018-10-21T15:20:18.873Z,1023.35
2018-10-21T15:21:18.900Z,1023.34
2018-10-21T15:22:19.045Z,1023.33
2018-10-21T15:23:19.029Z,1023.33
2018-10-21T15:24:19.002Z,1023.35
2018-10-21T15:25:19.023Z,1023.37
2018-10-21T15:26:19.212Z,1023.42
2018-10-21T15:27:19.080Z,1023.47
2018-10-21T15:28:19.288Z,1023.47
2018-10-21T15:29:19.144Z,1023.49
2018-10-21T15:30:19.174Z,1023.44
2018-10-21T15:31:19.202Z,1023.47
2018-10-21T15:32:19.275Z,1023.43
2018-10-21T15:33:19.264Z,1023.41
2018-10-21T15:34:19.292Z,1023.44
2018-10-21T15:35:19.321Z,1023.43
2018-10-21T15:36:19.355Z,1023.42
2018-10-21T15:37:19.385Z,1023.43
2018-10-21T15:38:19.468Z,1023.42
2018-10-21T15:39:19.440Z,1023.39
2018-10-21T15:40:19.524Z,1023.36
2018-10-21T15:41:19.501Z,1023.36
2018-10-21T15:42:19.534Z,1023.34
2018-10-21T15:43:19.565Z,1023.30
2018-10-21T15:44:19.676Z,1023.26
2018-10-21T15:45:19.624Z,1023.24
2018-10-21T15:46:19.723Z,1023.28
2018-10-21T15:47:19.682Z,1023.24
2018-10-21T15:48:19.713Z,1023.23
2018-10-21T15:49:19.740Z,1023.25
2018-10-21T15:50:19.940Z,1023.29
2018-10-21T15:51:19.803Z,1023.28
2018-10-21T15:52:19.853Z,1023.27
2018-10-21T15:53:19.860Z,1023.26
2018-10-21T15:54:19.887Z,1023.34
2018-10-21T15:55:19.916Z,1023.35
2018-10-21T15:56:19.955Z,1023.32
2018-10-21T15:57:19.979Z,1023.25
2018-10-21T15:58:20.112Z,1023.27
2018-10-21T15:59:20.038Z,1023.22
2018-10-21T16:00:20.066Z,1023.25
2018-10-21T16:01:20.096Z,1023.23
2018-10-21T16:02:20.311Z,1023.19
2018-10-21T16:03:20.155Z,1023.20
2018-10-21T16:04:20.185Z,1023.17
2018-10-21T16:05:20.219Z,1023.17
2018-10-21T16:06:20.248Z,1023.18
2018-10-21T16:07:20.273Z,1023.19
2018-10-21T16:08:20.303Z,1023.14
2018-10-21T16:09:20.334Z,1023.15
2018-10-21T16:10:20.362Z,1023.10
2018-10-21T16:11:20.393Z,1023.11
2018-10-21T16:12:20.420Z,1023.10
2018-10-21T16:13:20.451Z,1023.11
2018-10-21T16:14:20.526Z,1023.08
2018-10-21T16:15:20.510Z,1023.06
2018-10-21T16:16:20.644Z,1023.06
2018-10-21T16:17:20.569Z,1022.98
2018-10-21T16:18:20.599Z,1023.02
2018-10-21T16:19:20.633Z,1023.03
2018-10-21T16:20:20.659Z,1023.08
2018-10-21T16:21:20.690Z,1023.04
2018-10-21T16:22:20.721Z,1023.05
2018-10-21T16:23:20.745Z,1023.04
2018-10-21T16:24:20.777Z,1022.99
2018-10-21T16:25:20.815Z,1023.01
2018-10-21T16:26:20.872Z,1022.98
2018-10-21T16:27:20.862Z,1022.95
2018-10-21T16:28:20.999Z,1022.96
2018-10-21T16:29:20.926Z,1022.98
2018-10-21T16:30:20.952Z,1022.92
2018-10-21T16:31:20.981Z,1022.92
2018-10-21T16:32:21.097Z,1022.93
2018-10-21T16:33:21.040Z,1022.87
2018-10-21T16:34:21.069Z,1022.92
2018-10-21T16:35:21.098Z,1022.89
2018-10-21T16:36:21.128Z,1022.86
2018-10-21T16:37:21.188Z,1022.85
2018-10-21T16:38:21.243Z,1022.84
2018-10-21T16:39:21.228Z,1022.83
2018-10-21T16:40:21.248Z,1022.80
2018-10-21T16:41:21.277Z,1022.84
2018-10-21T16:42:21.306Z,1022.75
2018-10-21T16:43:21.333Z,1022.79
2018-10-21T16:44:21.361Z,1022.82
2018-10-21T16:45:21.396Z,1022.79
2018-10-21T16:46:21.421Z,1022.75
2018-10-21T16:47:21.452Z,1022.77
2018-10-21T16:48:21.480Z,1022.78
2018-10-21T16:49:21.508Z,1022.73
2018-10-21T16:50:21.539Z,1022.71
2018-10-21T16:51:21.690Z,1022.65
2018-10-21T16:52:21.595Z,1022.70
2018-10-21T16:53:21.726Z,1022.61
2018-10-21T16:54:21.757Z,1022.65
2018-10-21T16:55:21.688Z,1022.70
2018-10-21T16:56:21.713Z,1022.74
2018-10-21T16:57:21.778Z,1022.71
2018-10-21T16:58:21.771Z,1022.72
2018-10-21T16:59:22.132Z,1022.73
2018-10-21T17:00:21.931Z,1022.66
2018-10-21T17:01:21.859Z,1022.65
2018-10-21T17:02:21.888Z,1022.69
2018-10-21T17:03:22.061Z,1022.64
2018-10-21T17:04:21.948Z,1022.60
2018-10-21T17:05:21.975Z,1022.60
2018-10-21T17:06:22.009Z,1022.59
2018-10-21T17:07:22.036Z,1022.55
2018-10-21T17:08:22.062Z,1022.55
2018-10-21T17:09:22.214Z,1022.51
2018-10-21T17:10:22.587Z,1022.46
2018-10-21T17:11:22.211Z,1022.46
2018-10-21T17:12:22.176Z,1022.49
2018-10-21T17:13:22.210Z,1022.50
2018-10-21T17:14:22.238Z,1022.45
2018-10-21T17:15:22.266Z,1022.45
2018-10-21T17:16:22.299Z,1022.43
2018-10-21T17:17:22.325Z,1022.41
2018-10-21T17:18:22.361Z,1022.41
2018-10-21T17:19:22.380Z,1022.43
2018-10-21T17:20:22.410Z,1022.40
2018-10-21T17:21:22.440Z,1022.43
2018-10-21T17:22:22.468Z,1022.43
2018-10-21T17:23:22.498Z,1022.42
2018-10-21T17:24:22.669Z,1022.45
2018-10-21T17:25:22.554Z,1022.44
2018-10-21T17:26:22.582Z,1022.45
2018-10-21T17:27:22.614Z,1022.47
2018-10-21T17:28:22.640Z,1022.46
2018-10-21T17:29:22.678Z,1022.42
2018-10-21T17:30:22.710Z,1022.46
2018-10-21T17:31:22.730Z,1022.44
2018-10-21T17:32:22.757Z,1022.39
2018-10-21T17:33:22.787Z,1022.40
2018-10-21T17:34:22.822Z,1022.34
2018-10-21T17:35:22.841Z,1022.34
2018-10-21T17:36:22.870Z,1022.33
2018-10-21T17:37:22.904Z,1022.35
2018-10-21T17:38:22.931Z,1022.34
2018-10-21T17:39:22.959Z,1022.27
2018-10-21T17:40:23.072Z,1022.23
2018-10-21T17:41:23.015Z,1022.24